Time;durP1;ratioP1;P1;durP2;ratioP2;P2;SDS_P1;SDS_P2;PMS_P1;PMS_P2;Temp;Humidity;BMP_temperature;BMP_pressure;BME280_temperature;BME280_humidity;BME280_pressure;Samples;Min_cycle;Max_cycle;Signal;HPM_P1;HPM_P2
2023/04/14 00:01:42;;;;;;;13.35;6.30;;;;;;;2.81;100.00;100756.19;5053163;28;20096;-58
2023/04/14 00:04:08;;;;;;;15.50;6.28;;;;;;;2.83;100.00;100749.53;5052870;28;20496;-58
2023/04/14 00:06:33;;;;;;;16.42;6.68;;;;;;;2.86;100.00;100754.81;5052156;28;20090;-58
2023/04/14 00:08:58;;;;;;;17.52;7.10;;;;;;;2.90;100.00;100755.88;5053014;28;20086;-57
2023/04/14 00:11:24;;;;;;;15.25;6.38;;;;;;;2.90;100.00;100755.88;5052590;28;20029;-58
2023/04/14 00:13:49;;;;;;;16.60;6.47;;;;;;;2.91;100.00;100757.63;5052190;28;20567;-58
2023/04/14 00:16:15;;;;;;;15.32;6.10;;;;;;;2.83;100.00;100748.66;5052624;28;20024;-58
2023/04/14 00:18:40;;;;;;;14.98;6.57;;;;;;;2.64;100.00;100752.66;5052757;28;20025;-58
2023/04/14 00:21:05;;;;;;;14.10;7.22;;;;;;;2.69;100.00;100752.94;5052172;28;20025;-58
2023/04/14 00:23:30;;;;;;;16.85;6.78;;;;;;;2.59;100.00;100757.44;5052635;28;20024;-58
2023/04/14 00:25:56;;;;;;;15.45;6.13;;;;;;;2.62;100.00;100754.22;5052648;28;20055;-57
2023/04/14 00:28:21;;;;;;;14.90;6.55;;;;;;;2.56;100.00;100762.38;5051612;28;20495;-57
2023/04/14 00:30:46;;;;;;;14.73;6.82;;;;;;;2.49;100.00;100760.22;5052715;28;20022;-58
2023/04/14 00:33:12;;;;;;;17.73;6.50;;;;;;;2.44;100.00;100757.41;5052545;28;20175;-57
2023/04/14 00:35:37;;;;;;;16.10;6.82;;;;;;;2.45;100.00;100758.28;5051747;28;20032;-57
2023/04/14 00:38:02;;;;;;;17.25;7.50;;;;;;;2.43;100.00;100757.34;5052864;28;20368;-58
2023/04/14 00:40:29;;;;;;;17.27;7.60;;;;;;;2.32;100.00;100759.19;5052265;28;20112;-58
2023/04/14 00:42:55;;;;;;;20.60;7.72;;;;;;;2.36;100.00;100755.19;5051760;28;20025;-58
2023/04/14 00:45:20;;;;;;;13.73;7.00;;;;;;;2.33;100.00;100760.09;5052078;28;20021;-58
2023/04/14 00:47:49;;;;;;;14.90;7.47;;;;;;;2.24;100.00;100758.72;5052474;28;20021;-58
2023/04/14 00:50:16;;;;;;;18.27;7.65;;;;;;;2.16;100.00;100762.47;5052170;28;20033;-57
2023/04/14 00:52:43;;;;;;;15.02;7.60;;;;;;;2.16;100.00;100762.47;5052369;28;20533;-58
2023/04/14 00:55:09;;;;;;;19.23;7.60;;;;;;;2.14;100.00;100769.13;5052657;28;20024;-57
2023/04/14 00:57:35;;;;;;;15.18;7.28;;;;;;;2.06;100.00;100770.31;5052370;28;20104;-58
2023/04/14 01:00:03;;;;;;;16.00;8.15;;;;;;;2.05;100.00;100778.72;5056517;28;20060;-57
2023/04/14 01:02:29;;;;;;;17.73;8.45;;;;;;;2.11;100.00;100779.09;5056254;28;20101;-58
2023/04/14 01:04:55;;;;;;;19.67;8.63;;;;;;;2.05;100.00;100774.50;5055222;28;20132;-57
2023/04/14 01:07:22;;;;;;;14.60;8.48;;;;;;;2.11;100.00;100785.06;5056081;28;20021;-57
2023/04/14 01:09:48;;;;;;;19.30;8.65;;;;;;;2.04;100.00;100777.84;5055557;28;20032;-57
2023/04/14 01:12:25;;;;;;;16.17;8.57;;;;;;;2.01;100.00;100781.84;5056137;28;20116;-57
2023/04/14 01:14:57;;;;;;;17.23;8.63;;;;;;;1.99;100.00;100779.22;5056103;28;20017;-58
2023/04/14 01:17:43;;;;;;;20.25;8.82;;;;;;;1.97;100.00;100778.22;5055223;28;20067;-58
2023/04/14 01:20:18;;;;;;;20.70;8.55;;;;;;;1.87;100.00;100779.31;5056252;28;20025;-57
2023/04/14 01:22:52;;;;;;;18.13;8.05;;;;;;;1.88;100.00;100783.59;5055954;28;20378;-58
2023/04/14 01:25:39;;;;;;;17.65;7.80;;;;;;;1.81;100.00;100784.03;5054943;28;20104;-58
2023/04/14 01:28:20;;;;;;;16.38;7.93;;;;;;;1.85;100.00;100785.97;5056138;28;20043;-58
2023/04/14 01:31:01;;;;;;;18.38;7.70;;;;;;;1.86;100.00;100790.28;5054975;28;20067;-58
2023/04/14 01:33:31;;;;;;;16.13;7.25;;;;;;;1.88;100.00;100783.59;5055326;28;20021;-58
2023/04/14 01:36:04;;;;;;;18.23;7.78;;;;;;;1.91;100.00;100785.47;5056002;28;20079;-58
2023/04/14 01:38:33;;;;;;;17.42;7.65;;;;;;;1.93;100.00;100777.16;5054802;28;20037;-58
2023/04/14 01:41:03;;;;;;;18.98;8.35;;;;;;;1.89;100.00;100784.50;5055585;28;20078;-57
2023/04/14 01:43:32;;;;;;;19.15;8.23;;;;;;;1.77;100.00;100784.56;5055237;28;20380;-57
2023/04/14 01:46:03;;;;;;;14.50;7.57;;;;;;;1.67;100.00;100784.81;5054680;28;20029;-58
2023/04/14 01:48:31;;;;;;;13.68;7.72;;;;;;;1.64;100.00;100791.44;5055380;28;20091;-57
2023/04/14 01:50:58;;;;;;;15.02;7.32;;;;;;;1.66;100.00;100793.19;5055382;28;20461;-58
2023/04/14 01:53:26;;;;;;;18.85;7.20;;;;;;;1.72;100.00;100789.38;5054442;28;20032;-57
2023/04/14 01:55:53;;;;;;;16.98;6.60;;;;;;;1.75;100.00;100788.69;5055404;28;20028;-58
2023/04/14 01:58:20;;;;;;;22.85;7.60;;;;;;;1.80;100.00;100790.75;5055095;28;20025;-57
2023/04/14 02:00:48;;;;;;;20.95;7.68;;;;;;;1.83;100.00;100795.13;5054731;28;20021;-57
2023/04/14 02:03:16;;;;;;;16.92;7.55;;;;;;;1.88;100.00;100793.78;5055575;28;20033;-58
2023/04/14 02:05:43;;;;;;;16.30;7.35;;;;;;;1.83;100.00;100799.34;5054957;28;20044;-57
2023/04/14 02:08:11;;;;;;;17.80;7.57;;;;;;;1.81;100.00;100799.25;5054570;28;20025;-57
2023/04/14 02:10:40;;;;;;;19.17;7.47;;;;;;;1.77;100.00;100799.81;5053766;28;20106;-58
2023/04/14 02:13:06;;;;;;;14.80;7.32;;;;;;;1.70;100.00;100801.09;5054197;28;20036;-57
2023/04/14 02:15:33;;;;;;;17.63;7.00;;;;;;;1.67;100.00;100805.13;5054731;28;20029;-57
2023/04/14 02:18:01;;;;;;;14.65;6.97;;;;;;;1.58;100.00;100802.88;5054992;28;20464;-57
2023/04/14 02:20:27;;;;;;;16.08;7.68;;;;;;;1.60;100.00;100797.09;5053793;28;20472;-57
2023/04/14 02:22:52;;;;;;;14.88;7.15;;;;;;;1.61;100.00;100801.41;5054884;28;20033;-58
2023/04/14 02:25:22;;;;;;;18.58;7.22;;;;;;;1.65;100.00;100807.53;5054603;28;20033;-58
2023/04/14 02:27:51;;;;;;;15.10;7.38;;;;;;;1.67;100.00;100800.91;5054091;28;20037;-57
2023/04/14 02:30:23;;;;;;;17.35;7.72;;;;;;;1.67;100.00;100805.13;5054631;28;20086;-57
2023/04/14 02:32:55;;;;;;;18.67;7.68;;;;;;;1.60;100.00;100809.81;5055048;28;20037;-57
2023/04/14 02:35:27;;;;;;;17.95;7.25;;;;;;;1.59;100.00;100813.13;5053683;28;20078;-57
2023/04/14 02:37:56;;;;;;;21.20;7.32;;;;;;;1.54;100.00;100817.03;5054624;28;20037;-57
2023/04/14 02:40:29;;;;;;;17.73;7.68;;;;;;;1.54;100.00;100822.09;5054427;28;20025;-57
2023/04/14 02:43:06;;;;;;;18.45;7.32;;;;;;;1.57;100.00;100824.81;5053842;28;20016;-57
2023/04/14 02:45:35;;;;;;;19.30;8.23;;;;;;;1.56;100.00;100822.19;5054229;28;20061;-57
2023/04/14 02:48:06;;;;;;;15.75;7.22;;;;;;;1.51;100.00;100824.44;5054363;28;20029;-57
2023/04/14 02:50:32;;;;;;;19.45;7.63;;;;;;;1.54;100.00;100823.78;5054055;28;20540;-57
2023/04/14 02:52:59;;;;;;;17.30;7.60;;;;;;;1.47;100.00;100827.53;5054457;28;20039;-57
2023/04/14 02:55:26;;;;;;;20.10;8.00;;;;;;;1.60;100.00;100822.50;5053466;28;20025;-57
2023/04/14 02:57:52;;;;;;;15.27;7.28;;;;;;;1.62;100.00;100828.53;5054332;28;20017;-58
2023/04/14 03:00:19;;;;;;;15.38;7.43;;;;;;;1.50;100.00;100826.88;5053897;28;20032;-57
2023/04/14 03:02:45;;;;;;;18.35;7.88;;;;;;;1.51;100.00;100819.38;5053467;28;20464;-58
2023/04/14 03:05:11;;;;;;;19.27;7.93;;;;;;;1.44;100.00;100827.34;5053642;28;20045;-57
2023/04/14 03:07:39;;;;;;;16.70;8.20;;;;;;;1.46;100.00;100825.81;5053948;28;20025;-57
2023/04/14 03:10:05;;;;;;;17.20;7.50;;;;;;;1.39;100.00;100828.72;5053353;28;20021;-57
2023/04/14 03:12:32;;;;;;;16.85;7.47;;;;;;;1.41;100.00;100827.16;5053684;28;20278;-57
2023/04/14 03:14:58;;;;;;;17.30;8.33;;;;;;;1.43;100.00;100831.56;5053865;28;20032;-57
2023/04/14 03:17:26;;;;;;;21.90;8.18;;;;;;;1.44;100.00;100832.44;5052768;28;20358;-57
2023/04/14 03:19:52;;;;;;;17.27;8.02;;;;;;;1.47;100.00;100832.63;5053757;28;20024;-57
2023/04/14 03:22:19;;;;;;;17.35;7.60;;;;;;;1.46;100.00;100826.69;5053539;28;20041;-58
2023/04/14 03:24:45;;;;;;;18.05;7.90;;;;;;;1.46;100.00;100825.81;5053098;28;20021;-57
2023/04/14 03:27:19;;;;;;;19.55;7.47;;;;;;;1.37;100.00;100825.19;5053752;28;20021;-57
2023/04/14 03:29:50;;;;;;;15.75;7.47;;;;;;;1.30;100.00;100824.78;5053582;28;20099;-57
2023/04/14 03:32:17;;;;;;;22.27;8.07;;;;;;;1.27;100.00;100827.09;5052723;28;20108;-57
2023/04/14 03:34:45;;;;;;;16.42;7.78;;;;;;;1.24;100.00;100824.38;5053682;28;20029;-57
2023/04/14 03:37:13;;;;;;;19.17;7.68;;;;;;;1.22;100.00;100825.91;5053670;28;20028;-57
2023/04/14 03:39:39;;;;;;;17.00;8.25;;;;;;;1.20;100.00;100826.59;5052511;28;20033;-57
2023/04/14 03:42:10;;;;;;;16.20;7.82;;;;;;;1.27;100.00;100831.31;5053261;28;20017;-57
2023/04/14 03:44:38;;;;;;;16.98;8.38;;;;;;;1.23;100.00;100832.75;5052409;28;20095;-57
2023/04/14 03:47:06;;;;;;;23.10;8.77;;;;;;;1.36;100.00;100828.50;5053210;28;20028;-57
2023/04/14 03:49:35;;;;;;;18.80;7.75;;;;;;;1.34;100.00;100832.59;5053003;28;20486;-57
2023/04/14 03:52:04;;;;;;;18.55;8.52;;;;;;;1.36;100.00;100831.06;5052376;28;20491;-57
2023/04/14 03:54:32;;;;;;;18.17;8.88;;;;;;;1.38;100.00;100837.09;5052898;28;20036;-57
2023/04/14 03:56:59;;;;;;;21.73;9.70;;;;;;;1.40;100.00;100835.56;5053091;28;20033;-57
2023/04/14 03:59:26;;;;;;;22.70;8.57;;;;;;;1.39;100.00;100834.66;5051929;28;20071;-58
2023/04/14 04:01:53;;;;;;;17.85;8.15;;;;;;;1.38;100.00;100827.84;5053324;28;20415;-57
2023/04/14 04:04:20;;;;;;;23.05;8.60;;;;;;;1.35;100.00;100831.84;5052372;28;20507;-58
2023/04/14 04:06:45;;;;;;;18.83;9.05;;;;;;;1.30;100.00;100829.88;5052279;28;20033;-57
2023/04/14 04:09:16;;;;;;;18.23;8.85;;;;;;;1.34;100.00;100835.13;5052924;28;20033;-57
2023/04/14 04:11:44;;;;;;;21.08;9.00;;;;;;;1.31;100.00;100834.16;5053044;28;20025;-57
2023/04/14 04:14:11;;;;;;;22.52;9.68;;;;;;;1.30;100.00;100834.94;5052386;28;20095;-57
2023/04/14 04:16:40;;;;;;;14.23;3.78;;;;;;;1.34;100.00;100843.63;5052612;28;20043;-57
2023/04/14 04:19:06;;;;;;;19.58;8.23;;;;;;;1.24;100.00;100844.69;5052923;28;20021;-57
2023/04/14 04:21:34;;;;;;;21.52;8.85;;;;;;;1.25;100.00;100851.53;5051698;28;20396;-57
2023/04/14 04:24:02;;;;;;;21.42;9.40;;;;;;;1.31;100.00;100853.59;5052713;28;20040;-57
2023/04/14 04:26:27;;;;;;;20.25;9.57;;;;;;;1.33;100.00;100848.59;5052324;28;20123;-57
2023/04/14 04:28:56;;;;;;;19.27;8.75;;;;;;;1.34;100.00;100847.84;5052201;28;20104;-57
2023/04/14 04:31:23;;;;;;;18.27;8.23;;;;;;;1.31;100.00;100851.91;5052338;28;20383;-58
2023/04/14 04:33:49;;;;;;;17.65;8.50;;;;;;;1.31;100.00;100854.47;5057771;28;20499;-57
2023/04/14 04:36:15;;;;;;;20.92;8.95;;;;;;;1.25;100.00;100856.63;5059267;28;20056;-57
2023/04/14 04:38:41;;;;;;;20.10;8.45;;;;;;;1.24;100.00;100853.94;5059243;28;20056;-58
2023/04/14 04:41:07;;;;;;;19.83;9.02;;;;;;;1.24;100.00;100851.41;5058674;28;20021;-57
2023/04/14 04:43:32;;;;;;;20.15;8.68;;;;;;;1.20;100.00;100854.53;5059098;28;20091;-58
2023/04/14 04:45:57;;;;;;;20.48;8.52;;;;;;;1.15;100.00;100854.22;5059142;28;20036;-57
2023/04/14 04:48:23;;;;;;;20.27;8.90;;;;;;;1.19;100.00;100853.66;5058203;28;20048;-57
2023/04/14 04:50:48;;;;;;;21.98;9.85;;;;;;;1.19;100.00;100855.28;5059161;28;20279;-58
2023/04/14 04:53:14;;;;;;;23.90;10.40;;;;;;;1.23;100.00;100850.53;5059075;28;20023;-58
2023/04/14 04:55:40;;;;;;;19.92;8.88;;;;;;;1.24;100.00;100854.84;5057949;28;20032;-58
2023/04/14 04:58:06;;;;;;;22.65;9.07;;;;;;;1.20;100.00;100847.81;5059013;28;20365;-58
2023/04/14 05:00:32;;;;;;;19.90;9.00;;;;;;;1.22;100.00;100851.31;5058933;28;20032;-57
2023/04/14 05:02:57;;;;;;;22.63;10.05;;;;;;;1.27;100.00;100839.81;5058334;28;20040;-57
2023/04/14 05:05:22;;;;;;;23.73;9.27;;;;;;;1.26;100.00;100845.66;5058595;28;20044;-57
2023/04/14 05:07:47;;;;;;;19.45;8.82;;;;;;;1.27;100.00;100839.81;5058960;28;20450;-57
2023/04/14 05:10:13;;;;;;;17.52;8.55;;;;;;;1.31;100.00;100845.97;5058339;28;20025;-57
2023/04/14 05:12:38;;;;;;;22.83;9.07;;;;;;;1.26;100.00;100853.28;5058880;28;20365;-57
2023/04/14 05:15:04;;;;;;;19.98;9.25;;;;;;;1.31;100.00;100846.84;5059029;28;20025;-57
2023/04/14 05:17:29;;;;;;;23.17;9.88;;;;;;;1.38;100.00;100850.69;5057941;28;20016;-57
2023/04/14 05:19:56;;;;;;;24.17;9.70;;;;;;;1.40;100.00;100853.34;5059119;28;20405;-57
2023/04/14 05:22:21;;;;;;;21.85;10.07;;;;;;;1.40;100.00;100848.25;5058677;28;20021;-57
2023/04/14 05:24:49;;;;;;;20.25;9.15;;;;;;;1.42;100.00;100844.13;5058003;28;20037;-57
2023/04/14 05:27:14;;;;;;;19.42;9.63;;;;;;;1.49;100.00;100851.41;5059010;28;20021;-57
2023/04/14 05:29:40;;;;;;;22.95;10.02;;;;;;;1.55;100.00;100845.81;5058753;28;20029;-57
2023/04/14 05:32:05;;;;;;;20.98;10.23;;;;;;;1.61;100.00;100844.59;5058187;28;20032;-57
2023/04/14 05:34:30;;;;;;;22.25;9.93;;;;;;;1.64;100.00;100843.91;5058482;28;20108;-58
2023/04/14 05:36:55;;;;;;;27.60;11.35;;;;;;;1.67;100.00;100844.09;5057996;28;20036;-58
2023/04/14 05:39:21;;;;;;;23.27;10.43;;;;;;;1.68;100.00;100845.88;5058367;28;20027;-57
2023/04/14 05:41:46;;;;;;;28.38;10.57;;;;;;;1.78;100.00;100844.78;5058923;28;20036;-58
2023/04/14 05:44:11;;;;;;;22.60;10.45;;;;;;;1.81;100.00;100839.94;5056481;28;20666;-57
2023/04/14 05:46:36;;;;;;;25.05;11.43;;;;;;;1.89;100.00;100848.91;5055428;28;20029;-57
2023/04/14 05:49:03;;;;;;;22.10;10.77;;;;;;;1.98;100.00;100848.63;5055511;28;20449;-57
2023/04/14 05:51:29;;;;;;;19.88;10.50;;;;;;;2.06;100.00;100846.56;5054548;28;20029;-58
2023/04/14 05:53:54;;;;;;;23.13;10.98;;;;;;;2.17;100.00;100852.34;5055333;28;20028;-57
2023/04/14 05:56:19;;;;;;;24.65;10.40;;;;;;;2.25;100.00;100854.59;5055040;28;20033;-57
2023/04/14 05:58:45;;;;;;;28.02;10.55;;;;;;;2.34;100.00;100848.31;5054658;28;20021;-58
2023/04/14 06:01:10;;;;;;;24.83;10.32;;;;;;;2.46;100.00;100851.63;5055178;28;20040;-57
2023/04/14 06:03:36;;;;;;;23.77;10.77;;;;;;;2.56;100.00;100851.41;5054730;28;20520;-57
2023/04/14 06:06:01;;;;;;;27.05;10.13;;;;;;;2.66;100.00;100849.44;5054390;28;20029;-58
2023/04/14 06:08:26;;;;;;;24.85;10.35;;;;;;;2.78;100.00;100847.66;5054803;28;20029;-58
2023/04/14 06:10:52;;;;;;;33.47;10.50;;;;;;;2.92;100.00;100846.81;5055211;28;20380;-58
2023/04/14 06:13:21;;;;;;;27.20;10.82;;;;;;;3.04;100.00;100845.81;5054217;28;20017;-57
2023/04/14 06:15:48;;;;;;;23.25;10.13;;;;;;;3.25;100.00;100847.09;5055040;28;20029;-57
2023/04/14 06:18:13;;;;;;;21.42;10.10;;;;;;;3.40;100.00;100848.78;5055026;28;20134;-57
2023/04/14 06:20:38;;;;;;;21.20;8.90;;;;;;;3.54;100.00;100844.44;5053804;28;20156;-58
2023/04/14 06:23:04;;;;;;;20.58;9.20;;;;;;;3.63;100.00;100848.41;5054696;28;20025;-57
2023/04/14 06:25:29;;;;;;;24.48;8.90;;;;;;;3.76;100.00;100842.34;5054589;28;20132;-57
2023/04/14 06:27:55;;;;;;;18.65;8.82;;;;;;;3.87;100.00;100840.41;5054148;28;20180;-57
2023/04/14 06:30:21;;;;;;;17.38;8.85;;;;;;;3.98;100.00;100840.13;5054477;28;20376;-58
2023/04/14 06:32:47;;;;;;;18.27;8.40;;;;;;;4.10;100.00;100834.03;5054689;28;20044;-58
2023/04/14 06:35:12;;;;;;;19.75;8.35;;;;;;;4.19;100.00;100838.78;5053913;28;20362;-58
2023/04/14 06:37:38;;;;;;;21.73;8.45;;;;;;;4.32;100.00;100849.69;5054223;28;20067;-57
2023/04/14 06:40:03;;;;;;;17.42;7.80;;;;;;;4.43;100.00;100844.34;5054765;28;20039;-57
2023/04/14 06:42:29;;;;;;;21.13;8.02;;;;;;;4.56;100.00;100840.78;5053582;28;20411;-57
2023/04/14 06:44:54;;;;;;;23.25;8.68;;;;;;;4.69;100.00;100841.47;5054573;28;20033;-57
2023/04/14 06:47:20;;;;;;;18.65;7.95;;;;;;;4.80;100.00;100840.31;5053522;28;20080;-57
2023/04/14 06:49:46;;;;;;;18.75;7.25;;;;;;;4.96;100.00;100844.59;5054349;28;20029;-57
2023/04/14 06:52:11;;;;;;;19.08;7.93;;;;;;;5.04;100.00;100839.88;5054188;28;20021;-57
2023/04/14 06:54:36;;;;;;;18.58;8.18;;;;;;;5.19;100.00;100840.66;5053412;28;20017;-57
2023/04/14 06:57:02;;;;;;;17.58;7.65;;;;;;;5.37;100.00;100834.72;5053656;28;20029;-57
2023/04/14 06:59:28;;;;;;;19.60;8.05;;;;;;;5.50;100.00;100832.00;5053919;28;20021;-57
2023/04/14 07:01:53;;;;;;;16.58;7.70;;;;;;;5.57;100.00;100834.03;5053552;28;20028;-57
2023/04/14 07:04:19;;;;;;;21.27;7.88;;;;;;;5.69;100.00;100822.66;5053541;28;20041;-57
2023/04/14 07:06:44;;;;;;;15.85;7.03;;;;;;;5.81;100.00;100822.38;5054010;28;20033;-57
2023/04/14 07:09:10;;;;;;;16.35;7.85;;;;;;;5.95;100.00;100821.34;5053462;28;20024;-58
2023/04/14 07:11:35;;;;;;;19.23;7.60;;;;;;;6.04;100.00;100823.50;5053759;28;20033;-57
2023/04/14 07:14:00;;;;;;;17.05;6.93;;;;;;;6.26;100.00;100828.84;5054214;28;20112;-58
2023/04/14 07:16:26;;;;;;;14.13;6.55;;;;;;;6.33;100.00;100824.03;5052967;28;20106;-57
2023/04/14 07:18:51;;;;;;;17.50;6.35;;;;;;;6.37;98.07;100828.47;5053820;28;20448;-58
2023/04/14 07:21:16;;;;;;;16.98;6.35;;;;;;;6.37;96.71;100826.78;5053142;28;20388;-57
2023/04/14 07:23:41;;;;;;;15.38;6.07;;;;;;;6.41;95.70;100825.25;5052618;28;20036;-57
2023/04/14 07:26:07;;;;;;;17.17;7.25;;;;;;;6.55;95.61;100819.06;5053713;28;20032;-57
2023/04/14 07:28:32;;;;;;;20.15;6.97;;;;;;;6.63;94.18;100815.97;5053470;28;20017;-57
2023/04/14 07:30:57;;;;;;;12.10;6.10;;;;;;;6.69;93.91;100812.00;5052977;28;20024;-57
2023/04/14 07:33:23;;;;;;;15.88;6.32;;;;;;;6.86;93.05;100823.00;5053403;28;20530;-57
2023/04/14 07:35:51;;;;;;;14.13;6.88;;;;;;;6.97;92.64;100814.91;5053435;28;20035;-57
2023/04/14 07:38:16;;;;;;;15.43;6.60;;;;;;;7.13;92.21;100808.75;5052611;28;20032;-57
2023/04/14 07:40:41;;;;;;;13.10;6.70;;;;;;;7.19;91.02;100802.22;5053396;28;20095;-58
2023/04/14 07:43:07;;;;;;;12.50;6.70;;;;;;;7.31;91.17;100806.97;5053257;28;20028;-57
2023/04/14 07:45:32;;;;;;;15.85;6.40;;;;;;;7.44;90.01;100795.56;5052357;28;20040;-58
2023/04/14 07:47:58;;;;;;;15.27;5.95;;;;;;;7.54;89.67;100805.38;5053412;28;20110;-57
2023/04/14 07:50:23;;;;;;;12.20;5.88;;;;;;;7.71;90.03;100797.50;5053108;28;20029;-57
2023/04/14 07:52:48;;;;;;;16.20;5.35;;;;;;;7.85;89.06;100795.47;5052661;28;20029;-57
2023/04/14 07:55:14;;;;;;;11.20;5.00;;;;;;;7.99;88.55;100799.47;5053362;28;20107;-57
2023/04/14 07:57:39;;;;;;;12.27;5.05;;;;;;;8.21;87.74;100795.16;5052298;28;20096;-57
2023/04/14 08:00:08;;;;;;;14.20;5.13;;;;;;;8.30;84.78;100799.78;5053054;28;20392;-55
2023/04/14 08:02:33;;;;;;;12.80;5.03;;;;;;;8.28;81.42;100792.00;5052791;28;20043;-57
2023/04/14 08:04:59;;;;;;;11.40;3.80;;;;;;;8.39;80.63;100789.84;5052015;28;20049;-57
2023/04/14 08:07:27;;;;;;;12.88;4.07;;;;;;;8.45;80.50;100797.78;5052086;28;20021;-57
2023/04/14 08:09:52;;;;;;;8.20;3.65;;;;;;;8.61;80.59;100801.84;5053043;28;20055;-57
2023/04/14 08:12:18;;;;;;;12.18;4.13;;;;;;;8.71;76.96;100792.75;5051999;28;20431;-57
2023/04/14 08:14:43;;;;;;;9.57;3.70;;;;;;;8.83;76.60;100795.78;5052882;28;20489;-57
2023/04/14 08:17:09;;;;;;;11.23;3.65;;;;;;;8.96;75.61;100798.78;5052969;28;20025;-57
2023/04/14 08:19:35;;;;;;;8.57;3.90;;;;;;;9.12;76.47;100801.06;5051804;28;20468;-57
2023/04/14 08:22:01;;;;;;;12.25;4.00;;;;;;;9.03;73.80;100800.75;5052739;28;20380;-57
2023/04/14 08:24:26;;;;;;;10.35;3.45;;;;;;;9.10;75.22;100802.69;5052462;28;20103;-57
2023/04/14 08:26:51;;;;;;;8.55;3.15;;;;;;;9.22;74.55;100797.13;5052199;28;20035;-57
2023/04/14 08:29:16;;;;;;;9.13;2.97;;;;;;;9.20;71.15;100797.06;5052381;28;20024;-57
2023/04/14 08:31:42;;;;;;;11.05;2.85;;;;;;;9.30;71.18;100797.38;5052700;28;20384;-57
2023/04/14 08:34:07;;;;;;;9.93;2.65;;;;;;;9.47;72.07;100793.66;5051827;28;20017;-57
2023/04/14 08:36:32;;;;;;;10.25;3.20;;;;;;;9.52;70.21;100797.25;5052232;28;20033;-57
2023/04/14 08:38:59;;;;;;;11.23;3.00;;;;;;;9.58;71.25;100800.88;5052623;28;20025;-57
2023/04/14 08:41:25;;;;;;;8.27;3.35;;;;;;;9.74;70.67;100797.97;5051752;28;20057;-57
2023/04/14 08:43:50;;;;;;;10.93;3.10;;;;;;;9.97;71.69;100796.13;5052728;28;20028;-57
2023/04/14 08:46:18;;;;;;;8.77;3.35;;;;;;;9.98;70.09;100802.13;5052116;28;20032;-57
2023/04/14 08:48:48;;;;;;;8.90;2.80;;;;;;;10.01;67.96;100792.81;5051713;28;20039;-57
2023/04/14 08:51:26;;;;;;;6.85;3.05;;;;;;;10.07;67.98;100797.31;5052716;28;20115;-57
2023/04/14 08:53:54;;;;;;;9.35;2.70;;;;;;;10.26;67.41;100798.72;5051773;28;20487;-57
2023/04/14 08:56:23;;;;;;;10.38;2.85;;;;;;;10.32;66.68;100793.75;5052135;28;20102;-58
2023/04/14 08:58:49;;;;;;;7.47;2.88;;;;;;;10.43;66.98;100796.69;5052261;28;20434;-57
2023/04/14 09:01:15;;;;;;;6.20;2.30;;;;;;;10.48;64.87;100799.38;5051575;28;20025;-57
2023/04/14 09:03:42;;;;;;;8.55;2.75;;;;;;;10.63;65.33;100798.97;5052374;28;20031;-57
2023/04/14 09:06:07;;;;;;;7.97;2.80;;;;;;;10.65;62.17;100786.97;5052474;28;20090;-57
2023/04/14 09:08:34;;;;;;;7.93;2.30;;;;;;;10.72;61.27;100796.66;5050809;28;20029;-57
2023/04/14 09:11:03;;;;;;;7.65;2.30;;;;;;;10.95;63.00;100786.06;5051989;28;20053;-57
2023/04/14 09:13:29;;;;;;;6.18;2.60;;;;;;;10.96;61.65;100782.66;5052105;28;20104;-57
2023/04/14 09:15:55;;;;;;;10.70;3.00;;;;;;;11.13;60.46;100786.59;5051247;28;20021;-57
2023/04/14 09:18:21;;;;;;;10.55;2.83;;;;;;;11.27;58.65;100778.31;5052283;28;20079;-58
2023/04/14 09:20:46;;;;;;;10.20;2.70;;;;;;;11.35;59.16;100777.69;5056094;28;20032;-57
2023/04/14 09:23:12;;;;;;;8.75;2.50;;;;;;;11.36;58.31;100783.69;5054819;28;20067;-57
2023/04/14 09:25:40;;;;;;;8.43;2.63;;;;;;;11.47;58.79;100782.28;5055290;28;20091;-57
2023/04/14 09:28:06;;;;;;;5.85;2.25;;;;;;;11.75;58.16;100777.78;5055752;28;20021;-57
2023/04/14 09:30:31;;;;;;;8.88;2.70;;;;;;;11.80;56.61;100780.47;5054617;28;20071;-57
2023/04/14 09:32:57;;;;;;;7.95;2.35;;;;;;;11.88;55.66;100772.91;5055755;28;20451;-57
2023/04/14 09:35:42;;;;;;;8.00;2.35;;;;;;;12.00;57.27;100768.91;5055645;28;20021;-58
2023/04/14 09:38:07;;;;;;;11.65;2.10;;;;;;;12.44;56.30;100765.53;5054183;28;20100;-57
2023/04/14 09:40:32;;;;;;;7.47;2.45;;;;;;;12.53;54.14;100759.69;5054486;28;20108;-57
2023/04/14 09:42:59;;;;;;;9.10;2.20;;;;;;;12.61;53.58;100765.00;5055435;28;20530;-57
2023/04/14 09:45:43;;;;;;;7.05;2.25;;;;;;;12.60;53.70;100758.09;5054844;28;20028;-57
2023/04/14 09:48:11;;;;;;;8.23;2.25;;;;;;;12.77;52.10;100759.31;5055659;28;20039;-58
2023/04/14 09:51:10;;;;;;;8.73;2.20;;;;;;;13.06;51.70;100758.09;5054414;28;20025;-57
2023/04/14 09:53:37;;;;;;;11.05;2.63;;;;;;;13.36;51.39;100747.41;5050620;28;20072;-58
2023/04/14 09:56:10;;;;;;;8.63;2.35;;;;;;;13.62;50.45;100742.69;5055319;28;20477;-57
2023/04/14 09:58:37;;;;;;;8.35;2.20;;;;;;;13.58;47.64;100742.59;5054304;28;20029;-57
2023/04/14 10:01:14;;;;;;;6.90;2.10;;;;;;;13.86;48.50;100753.38;5055335;28;20035;-57
2023/04/14 10:03:41;;;;;;;10.70;2.57;;;;;;;14.00;46.32;100746.69;5054766;28;20025;-57
2023/04/14 10:06:09;;;;;;;8.88;2.28;;;;;;;13.87;47.13;100748.22;5054497;28;20029;-57
2023/04/14 10:08:36;;;;;;;;;;;;;;;14.20;49.14;100733.09;5054967;28;20036;-57
2023/04/14 10:11:34;;;;;;;7.40;1.90;;;;;;;15.17;47.52;100730.72;5055178;28;19978;-57
2023/04/14 10:14:04;;;;;;;6.78;1.77;;;;;;;15.45;42.57;100727.50;5050698;28;20102;-57
2023/04/14 10:16:29;;;;;;;9.35;2.55;;;;;;;15.57;42.71;100718.03;5054335;28;20029;-57
2023/04/14 10:18:58;;;;;;;6.43;1.83;;;;;;;15.82;41.37;100718.25;5054280;28;20020;-57
2023/04/14 10:21:24;;;;;;;8.85;1.90;;;;;;;15.95;40.26;100720.06;5054337;28;20379;-57
2023/04/14 10:23:51;;;;;;;9.27;2.25;;;;;;;16.12;42.23;100712.34;5054919;28;20028;-57
2023/04/14 10:26:18;;;;;;;7.47;1.85;;;;;;;15.76;40.77;100717.34;5053737;28;20039;-57
2023/04/14 10:28:44;;;;;;;5.97;1.77;;;;;;;16.08;40.28;100711.44;5054578;28;20533;-57
2023/04/14 10:31:32;;;;;;;8.88;1.85;;;;;;;16.46;41.16;100715.94;5053721;28;20040;-57
2023/04/14 10:33:57;;;;;;;6.40;1.67;;;;;;;15.72;39.86;100712.94;5053987;28;20029;-57
2023/04/14 10:36:27;;;;;;;5.13;1.80;;;;;;;14.85;42.11;100713.13;5054310;28;20384;-58
2023/04/14 10:39:00;;;;;;;7.00;2.45;;;;;;;14.37;44.34;100702.19;5054199;28;20029;-57
2023/04/14 10:41:26;;;;;;;7.30;2.13;;;;;;;15.14;44.19;100709.09;5053295;28;20461;-57
2023/04/14 10:43:51;;;;;;;6.50;2.00;;;;;;;15.10;41.05;100706.44;5054515;28;20063;-57
2023/04/14 10:46:16;;;;;;;6.80;2.00;;;;;;;16.11;41.75;100702.78;5054147;28;20036;-57
2023/04/14 10:48:45;;;;;;;9.05;2.17;;;;;;;16.50;39.63;100700.34;5053726;28;20419;-57
2023/04/14 10:51:11;;;;;;;6.55;1.70;;;;;;;16.90;38.63;100684.78;5054430;28;20025;-57
2023/04/14 10:53:49;;;;;;;7.85;2.47;;;;;;;17.05;40.20;100699.59;5052312;28;20024;-57
2023/04/14 10:56:15;;;;;;;7.45;1.77;;;;;;;17.72;37.70;100695.19;5054156;28;20021;-57
2023/04/14 10:58:40;;;;;;;5.43;1.80;;;;;;;17.60;38.96;100696.09;5054339;28;20143;-57
2023/04/14 11:01:28;;;;;;;5.68;1.83;;;;;;;17.97;39.43;100696.00;5053298;28;20060;-57
2023/04/14 11:03:56;;;;;;;6.18;1.75;;;;;;;17.44;36.16;100690.91;5053751;28;20432;-57
2023/04/14 11:06:50;;;;;;;7.57;1.95;;;;;;;17.48;38.58;100688.28;5053462;28;20031;-57
2023/04/14 11:09:27;;;;;;;6.97;1.90;;;;;;;16.96;38.57;100684.84;5052835;28;20115;-57
2023/04/14 11:11:55;;;;;;;5.55;1.77;;;;;;;17.22;36.35;100694.38;5053950;28;20439;-58
2023/04/14 11:14:29;;;;;;;4.57;1.50;;;;;;;17.44;37.24;100690.91;5053587;28;20028;-57
2023/04/14 11:17:02;;;;;;;6.18;1.73;;;;;;;17.68;36.97;100678.69;5053352;28;20167;-57
2023/04/14 11:19:28;;;;;;;4.18;1.70;;;;;;;17.22;36.28;100679.66;5053172;28;20028;-57
2023/04/14 11:21:54;;;;;;;5.20;1.63;;;;;;;16.78;35.76;100678.72;5052977;28;20483;-57